Página principal
METAR-TAF:

METAR-TAF

Aeroportos :

Amã, Jordânia

latitude: 31-59N, longitude: 035-59E, altura: 767 m

Observação actual do tempo

O boletim foi feito há 34 minutos, às 15:00 UTC
Vento 10 kt de oes-noroeste
Temperatura 32°C
Humidade 32%
Pressão 1011 hPa
Visibilidade: 6000 m

METAR: OJAM 161500Z 29010KT 6000 NSC 32/13 Q1011 NOSIG

Hora: 18:34 (15:34 UTC)

Previsão

O boletim foi feito há 5 horas e 51 minutos, às 09:43 UTC
Previsão válida de 16 às 12 UTC a 17 às 18 UTC
Vento 10 kt de oes-noroeste
Visibilidade: 5000 m
bruma
Tornando-se
de 16 às 17 UTC a 16 às 19 UTC
Vento 2 kt com direcção variável

TAF: OJAM 160943Z 1612/1718 30010KT 5000 HZ NSC BECMG 1617/1619 VRB02KT

Observações e previsões do tempo de mais de 4000 aeroportos (mensagens METAR e TAF).

As estações disponíveis são os pontos amarelos e vermelhos sobre o mapa.

Mova o rato sobre o mapa para ver o nome da estação.

Depois clique no ponto para visualizar as observações e previsões meteorológicas.

Para alterar o mapa : clique nos botões verdes com uma cruz preta para aumentar o zoom; no botão verde com uma pitada de zoom; ou nas setas verdes para mapas adjacentes.


METAR-TAF: